sensor_id;sensor_type;location;lat;lon;timestamp;temperature;humidity
19970;DHT22;10146;47.754;9.566;2022-10-16T00:01:17;12.50;99.90
19970;DHT22;10146;47.754;9.566;2022-10-16T00:03:44;12.50;99.90
19970;DHT22;10146;47.754;9.566;2022-10-16T00:06:11;12.50;99.90
19970;DHT22;10146;47.754;9.566;2022-10-16T00:08:38;12.40;99.90
19970;DHT22;10146;47.754;9.566;2022-10-16T00:11:07;12.40;99.90
19970;DHT22;10146;47.754;9.566;2022-10-16T00:13:35;12.30;99.90
19970;DHT22;10146;47.754;9.566;2022-10-16T00:16:01;12.30;99.90
19970;DHT22;10146;47.754;9.566;2022-10-16T00:18:28;12.30;99.90
19970;DHT22;10146;47.754;9.566;2022-10-16T00:20:54;12.30;99.90
19970;DHT22;10146;47.754;9.566;2022-10-16T00:23:20;12.30;99.90
19970;DHT22;10146;47.754;9.566;2022-10-16T00:25:58;12.30;99.90
19970;DHT22;10146;47.754;9.566;2022-10-16T00:28:24;12.30;99.90
19970;DHT22;10146;47.754;9.566;2022-10-16T00:30:49;12.30;99.90
19970;DHT22;10146;47.754;9.566;2022-10-16T00:33:15;12.30;99.90
19970;DHT22;10146;47.754;9.566;2022-10-16T00:35:41;12.30;99.90
19970;DHT22;10146;47.754;9.566;2022-10-16T00:38:06;12.40;99.90
19970;DHT22;10146;47.754;9.566;2022-10-16T00:40:32;12.40;99.90
19970;DHT22;10146;47.754;9.566;2022-10-16T00:42:58;12.40;99.90
19970;DHT22;10146;47.754;9.566;2022-10-16T00:45:23;12.40;99.90
19970;DHT22;10146;47.754;9.566;2022-10-16T00:47:50;12.40;99.90
19970;DHT22;10146;47.754;9.566;2022-10-16T00:50:30;12.40;99.90
19970;DHT22;10146;47.754;9.566;2022-10-16T00:52:58;12.40;99.90
19970;DHT22;10146;47.754;9.566;2022-10-16T00:55:25;12.40;99.90
19970;DHT22;10146;47.754;9.566;2022-10-16T00:57:52;12.40;99.90
19970;DHT22;10146;47.754;9.566;2022-10-16T01:00:21;12.40;99.90
19970;DHT22;10146;47.754;9.566;2022-10-16T01:02:59;12.40;99.90
19970;DHT22;10146;47.754;9.566;2022-10-16T01:05:48;12.40;99.90
19970;DHT22;10146;47.754;9.566;2022-10-16T01:08:34;12.40;99.90
19970;DHT22;10146;47.754;9.566;2022-10-16T01:11:22;12.40;99.90
19970;DHT22;10146;47.754;9.566;2022-10-16T01:13:57;12.40;99.90
19970;DHT22;10146;47.754;9.566;2022-10-16T01:19:12;12.40;99.90
19970;DHT22;10146;47.754;9.566;2022-10-16T01:21:42;12.50;99.90
19970;DHT22;10146;47.754;9.566;2022-10-16T01:24:43;12.50;99.90
19970;DHT22;10146;47.754;9.566;2022-10-16T01:27:15;12.50;99.90
19970;DHT22;10146;47.754;9.566;2022-10-16T01:30:18;12.50;99.90
19970;DHT22;10146;47.754;9.566;2022-10-16T01:32:50;12.50;99.90
19970;DHT22;10146;47.754;9.566;2022-10-16T01:35:26;12.50;99.90
19970;DHT22;10146;47.754;9.566;2022-10-16T01:40:19;12.50;99.90
19970;DHT22;10146;47.754;9.566;2022-10-16T01:42:53;12.50;99.90
19970;DHT22;10146;47.754;9.566;2022-10-16T01:45:21;12.50;99.90
19970;DHT22;10146;47.754;9.566;2022-10-16T01:47:48;12.50;99.90
19970;DHT22;10146;47.754;9.566;2022-10-16T01:50:16;12.50;99.90
19970;DHT22;10146;47.754;9.566;2022-10-16T01:52:45;12.50;99.90
19970;DHT22;10146;47.754;9.566;2022-10-16T01:55:17;12.50;99.90
19970;DHT22;10146;47.754;9.566;2022-10-16T01:57:46;12.50;99.90
19970;DHT22;10146;47.754;9.566;2022-10-16T02:00:15;12.50;99.90
19970;DHT22;10146;47.754;9.566;2022-10-16T02:02:44;12.50;99.90
19970;DHT22;10146;47.754;9.566;2022-10-16T02:05:26;12.50;99.90
19970;DHT22;10146;47.754;9.566;2022-10-16T02:07:54;12.50;99.90
19970;DHT22;10146;47.754;9.566;2022-10-16T02:10:21;12.60;99.90
19970;DHT22;10146;47.754;9.566;2022-10-16T02:13:11;12.60;99.90
19970;DHT22;10146;47.754;9.566;2022-10-16T02:15:38;12.60;99.90
19970;DHT22;10146;47.754;9.566;2022-10-16T02:18:05;12.50;99.90
19970;DHT22;10146;47.754;9.566;2022-10-16T02:20:37;12.50;99.90
19970;DHT22;10146;47.754;9.566;2022-10-16T02:23:04;12.50;99.90
19970;DHT22;10146;47.754;9.566;2022-10-16T02:25:35;12.50;99.90
19970;DHT22;10146;47.754;9.566;2022-10-16T02:30:50;12.60;99.90
19970;DHT22;10146;47.754;9.566;2022-10-16T02:33:18;12.60;99.90
19970;DHT22;10146;47.754;9.566;2022-10-16T02:35:47;12.60;99.90
19970;DHT22;10146;47.754;9.566;2022-10-16T02:38:15;12.60;99.90
19970;DHT22;10146;47.754;9.566;2022-10-16T02:40:41;12.60;99.90
19970;DHT22;10146;47.754;9.566;2022-10-16T02:43:08;12.60;99.90
19970;DHT22;10146;47.754;9.566;2022-10-16T02:45:34;12.60;99.90
19970;DHT22;10146;47.754;9.566;2022-10-16T02:48:00;12.60;99.90
19970;DHT22;10146;47.754;9.566;2022-10-16T02:50:26;12.60;99.90
19970;DHT22;10146;47.754;9.566;2022-10-16T02:52:51;12.60;99.90
19970;DHT22;10146;47.754;9.566;2022-10-16T02:55:17;12.60;99.90
19970;DHT22;10146;47.754;9.566;2022-10-16T02:57:43;12.60;99.90
19970;DHT22;10146;47.754;9.566;2022-10-16T03:00:13;12.50;99.90
19970;DHT22;10146;47.754;9.566;2022-10-16T03:02:39;12.60;99.90
19970;DHT22;10146;47.754;9.566;2022-10-16T03:05:05;12.50;99.90
19970;DHT22;10146;47.754;9.566;2022-10-16T03:07:31;12.50;99.90
19970;DHT22;10146;47.754;9.566;2022-10-16T03:09:56;12.60;99.90
19970;DHT22;10146;47.754;9.566;2022-10-16T03:12:26;12.60;99.90
19970;DHT22;10146;47.754;9.566;2022-10-16T03:14:51;12.60;99.90
19970;DHT22;10146;47.754;9.566;2022-10-16T03:17:17;12.50;99.90
19970;DHT22;10146;47.754;9.566;2022-10-16T03:19:42;12.60;99.90
19970;DHT22;10146;47.754;9.566;2022-10-16T03:22:08;12.60;99.90
19970;DHT22;10146;47.754;9.566;2022-10-16T03:24:34;12.60;99.90
19970;DHT22;10146;47.754;9.566;2022-10-16T03:26:59;12.60;99.90
19970;DHT22;10146;47.754;9.566;2022-10-16T03:29:26;12.50;99.90
19970;DHT22;10146;47.754;9.566;2022-10-16T03:31:52;12.40;99.90
19970;DHT22;10146;47.754;9.566;2022-10-16T03:34:18;12.40;99.90
19970;DHT22;10146;47.754;9.566;2022-10-16T03:36:44;12.40;99.90
19970;DHT22;10146;47.754;9.566;2022-10-16T03:39:09;12.30;99.90
19970;DHT22;10146;47.754;9.566;2022-10-16T03:41:35;12.40;99.90
19970;DHT22;10146;47.754;9.566;2022-10-16T03:44:00;12.30;99.90
19970;DHT22;10146;47.754;9.566;2022-10-16T03:46:26;12.30;99.90
19970;DHT22;10146;47.754;9.566;2022-10-16T03:48:52;12.30;99.90
19970;DHT22;10146;47.754;9.566;2022-10-16T03:51:18;12.20;99.90
19970;DHT22;10146;47.754;9.566;2022-10-16T03:53:43;12.20;99.90
19970;DHT22;10146;47.754;9.566;2022-10-16T03:56:09;12.30;99.90
19970;DHT22;10146;47.754;9.566;2022-10-16T03:58:34;12.20;99.90
19970;DHT22;10146;47.754;9.566;2022-10-16T04:01:00;12.30;99.90
19970;DHT22;10146;47.754;9.566;2022-10-16T04:03:25;12.30;99.90
19970;DHT22;10146;47.754;9.566;2022-10-16T04:05:51;12.40;99.90
19970;DHT22;10146;47.754;9.566;2022-10-16T04:08:17;12.50;99.90
19970;DHT22;10146;47.754;9.566;2022-10-16T04:10:43;12.40;99.90
19970;DHT22;10146;47.754;9.566;2022-10-16T04:13:09;12.40;99.90
19970;DHT22;10146;47.754;9.566;2022-10-16T04:15:34;12.40;99.90
19970;DHT22;10146;47.754;9.566;2022-10-16T04:18:00;12.30;99.90
19970;DHT22;10146;47.754;9.566;2022-10-16T04:20:26;12.30;99.90
19970;DHT22;10146;47.754;9.566;2022-10-16T04:22:52;12.30;99.90
19970;DHT22;10146;47.754;9.566;2022-10-16T04:25:17;12.20;99.90
19970;DHT22;10146;47.754;9.566;2022-10-16T04:27:43;12.20;99.90
19970;DHT22;10146;47.754;9.566;2022-10-16T04:30:09;12.20;99.90
19970;DHT22;10146;47.754;9.566;2022-10-16T04:32:34;12.10;99.90
19970;DHT22;10146;47.754;9.566;2022-10-16T04:35:00;12.10;99.90
19970;DHT22;10146;47.754;9.566;2022-10-16T04:37:26;12.00;99.90
19970;DHT22;10146;47.754;9.566;2022-10-16T04:39:53;11.90;99.90
19970;DHT22;10146;47.754;9.566;2022-10-16T04:42:19;12.00;99.90
19970;DHT22;10146;47.754;9.566;2022-10-16T04:44:45;12.00;99.90
19970;DHT22;10146;47.754;9.566;2022-10-16T04:47:11;12.00;99.90
19970;DHT22;10146;47.754;9.566;2022-10-16T04:49:36;11.90;99.90
19970;DHT22;10146;47.754;9.566;2022-10-16T04:52:02;12.00;99.90
19970;DHT22;10146;47.754;9.566;2022-10-16T04:54:28;12.00;99.90
19970;DHT22;10146;47.754;9.566;2022-10-16T04:56:53;12.10;99.90
19970;DHT22;10146;47.754;9.566;2022-10-16T04:59:20;12.10;99.90
19970;DHT22;10146;47.754;9.566;2022-10-16T05:01:45;12.00;99.90
19970;DHT22;10146;47.754;9.566;2022-10-16T05:04:11;12.00;99.90
19970;DHT22;10146;47.754;9.566;2022-10-16T05:06:37;12.00;99.90
19970;DHT22;10146;47.754;9.566;2022-10-16T05:09:07;12.00;99.90
19970;DHT22;10146;47.754;9.566;2022-10-16T05:11:32;12.10;99.90
19970;DHT22;10146;47.754;9.566;2022-10-16T05:13:58;12.00;99.90
19970;DHT22;10146;47.754;9.566;2022-10-16T05:16:24;12.00;99.90
19970;DHT22;10146;47.754;9.566;2022-10-16T05:18:51;12.00;99.90
19970;DHT22;10146;47.754;9.566;2022-10-16T05:21:17;12.00;99.90
19970;DHT22;10146;47.754;9.566;2022-10-16T05:23:42;12.00;99.90
19970;DHT22;10146;47.754;9.566;2022-10-16T05:26:08;12.00;99.90
19970;DHT22;10146;47.754;9.566;2022-10-16T05:28:34;12.10;99.90
19970;DHT22;10146;47.754;9.566;2022-10-16T05:31:03;12.00;99.90
19970;DHT22;10146;47.754;9.566;2022-10-16T05:33:29;12.00;99.90
19970;DHT22;10146;47.754;9.566;2022-10-16T05:35:54;12.00;99.90
19970;DHT22;10146;47.754;9.566;2022-10-16T05:38:20;12.00;99.90
19970;DHT22;10146;47.754;9.566;2022-10-16T05:40:52;12.00;99.90
19970;DHT22;10146;47.754;9.566;2022-10-16T05:43:21;12.00;99.90
19970;DHT22;10146;47.754;9.566;2022-10-16T05:45:59;12.00;99.90
19970;DHT22;10146;47.754;9.566;2022-10-16T05:48:25;12.00;99.90
19970;DHT22;10146;47.754;9.566;2022-10-16T05:51:02;12.00;99.90
19970;DHT22;10146;47.754;9.566;2022-10-16T05:53:29;12.00;99.90
19970;DHT22;10146;47.754;9.566;2022-10-16T05:55:56;12.10;99.90
19970;DHT22;10146;47.754;9.566;2022-10-16T05:58:22;12.00;99.90
19970;DHT22;10146;47.754;9.566;2022-10-16T06:00:59;12.10;99.90
19970;DHT22;10146;47.754;9.566;2022-10-16T06:03:26;12.10;99.90
19970;DHT22;10146;47.754;9.566;2022-10-16T06:05:52;12.20;99.90
19970;DHT22;10146;47.754;9.566;2022-10-16T06:08:19;12.20;99.90
19970;DHT22;10146;47.754;9.566;2022-10-16T06:10:45;12.20;99.90
19970;DHT22;10146;47.754;9.566;2022-10-16T06:13:12;12.30;99.90
19970;DHT22;10146;47.754;9.566;2022-10-16T06:15:38;12.30;99.90
19970;DHT22;10146;47.754;9.566;2022-10-16T06:18:05;12.20;99.90
19970;DHT22;10146;47.754;9.566;2022-10-16T06:20:30;12.30;99.90
19970;DHT22;10146;47.754;9.566;2022-10-16T06:22:56;12.20;99.90
19970;DHT22;10146;47.754;9.566;2022-10-16T06:25:22;12.30;99.90
19970;DHT22;10146;47.754;9.566;2022-10-16T06:27:48;12.40;99.90
19970;DHT22;10146;47.754;9.566;2022-10-16T06:30:13;12.40;99.90
19970;DHT22;10146;47.754;9.566;2022-10-16T06:32:39;12.40;99.90
19970;DHT22;10146;47.754;9.566;2022-10-16T06:35:05;12.40;99.90
19970;DHT22;10146;47.754;9.566;2022-10-16T06:37:30;12.50;99.90
19970;DHT22;10146;47.754;9.566;2022-10-16T06:39:56;12.50;99.90
19970;DHT22;10146;47.754;9.566;2022-10-16T06:42:21;12.60;99.90
19970;DHT22;10146;47.754;9.566;2022-10-16T06:44:47;12.70;99.90
19970;DHT22;10146;47.754;9.566;2022-10-16T06:47:12;12.70;99.90
19970;DHT22;10146;47.754;9.566;2022-10-16T06:49:38;12.80;99.90
19970;DHT22;10146;47.754;9.566;2022-10-16T06:52:04;13.00;99.90
19970;DHT22;10146;47.754;9.566;2022-10-16T06:54:30;13.00;99.90
19970;DHT22;10146;47.754;9.566;2022-10-16T06:56:55;13.00;99.90
19970;DHT22;10146;47.754;9.566;2022-10-16T06:59:21;13.10;99.90
19970;DHT22;10146;47.754;9.566;2022-10-16T07:01:47;13.10;99.90
19970;DHT22;10146;47.754;9.566;2022-10-16T07:04:12;13.10;99.90
19970;DHT22;10146;47.754;9.566;2022-10-16T07:06:38;13.10;99.90
19970;DHT22;10146;47.754;9.566;2022-10-16T07:09:08;13.20;99.90
19970;DHT22;10146;47.754;9.566;2022-10-16T07:11:35;13.30;99.90
19970;DHT22;10146;47.754;9.566;2022-10-16T07:14:01;13.40;99.90
19970;DHT22;10146;47.754;9.566;2022-10-16T07:16:29;13.50;99.90
19970;DHT22;10146;47.754;9.566;2022-10-16T07:18:56;13.50;99.90
19970;DHT22;10146;47.754;9.566;2022-10-16T07:21:27;13.60;99.90
19970;DHT22;10146;47.754;9.566;2022-10-16T07:23:56;13.60;99.90
19970;DHT22;10146;47.754;9.566;2022-10-16T07:26:22;13.80;99.90
19970;DHT22;10146;47.754;9.566;2022-10-16T07:28:48;13.80;99.90
19970;DHT22;10146;47.754;9.566;2022-10-16T07:31:15;13.90;99.90
19970;DHT22;10146;47.754;9.566;2022-10-16T07:33:43;13.90;99.90
19970;DHT22;10146;47.754;9.566;2022-10-16T07:36:12;14.00;99.90
19970;DHT22;10146;47.754;9.566;2022-10-16T07:38:38;14.00;99.90
19970;DHT22;10146;47.754;9.566;2022-10-16T07:41:06;14.00;99.90
19970;DHT22;10146;47.754;9.566;2022-10-16T07:43:32;14.00;99.90
19970;DHT22;10146;47.754;9.566;2022-10-16T07:45:59;14.10;99.90
19970;DHT22;10146;47.754;9.566;2022-10-16T07:48:27;14.10;99.90
19970;DHT22;10146;47.754;9.566;2022-10-16T07:51:00;14.20;99.90
19970;DHT22;10146;47.754;9.566;2022-10-16T07:53:27;14.20;99.90
19970;DHT22;10146;47.754;9.566;2022-10-16T07:55:56;14.20;99.90
19970;DHT22;10146;47.754;9.566;2022-10-16T07:58:23;14.30;99.90
19970;DHT22;10146;47.754;9.566;2022-10-16T08:00:48;14.30;99.90
19970;DHT22;10146;47.754;9.566;2022-10-16T08:03:14;14.40;99.90
19970;DHT22;10146;47.754;9.566;2022-10-16T08:05:39;14.60;99.90
19970;DHT22;10146;47.754;9.566;2022-10-16T08:08:05;14.70;99.90
19970;DHT22;10146;47.754;9.566;2022-10-16T08:10:31;14.80;99.90
19970;DHT22;10146;47.754;9.566;2022-10-16T08:12:57;15.00;99.90
19970;DHT22;10146;47.754;9.566;2022-10-16T08:15:23;15.00;99.90
19970;DHT22;10146;47.754;9.566;2022-10-16T08:18:02;15.10;99.90
19970;DHT22;10146;47.754;9.566;2022-10-16T08:20:30;15.20;99.90
19970;DHT22;10146;47.754;9.566;2022-10-16T08:22:56;15.30;99.90
19970;DHT22;10146;47.754;9.566;2022-10-16T08:25:22;15.50;99.90
19970;DHT22;10146;47.754;9.566;2022-10-16T08:27:48;15.60;99.90
19970;DHT22;10146;47.754;9.566;2022-10-16T08:30:15;15.70;99.90
19970;DHT22;10146;47.754;9.566;2022-10-16T08:32:41;15.80;99.90
19970;DHT22;10146;47.754;9.566;2022-10-16T08:35:08;15.80;99.90
19970;DHT22;10146;47.754;9.566;2022-10-16T08:37:35;16.00;99.90
19970;DHT22;10146;47.754;9.566;2022-10-16T08:40:01;16.10;99.90
19970;DHT22;10146;47.754;9.566;2022-10-16T08:42:39;16.40;99.90
19970;DHT22;10146;47.754;9.566;2022-10-16T08:48:45;16.80;99.90
19970;DHT22;10146;47.754;9.566;2022-10-16T08:51:34;16.90;99.90
19970;DHT22;10146;47.754;9.566;2022-10-16T08:54:18;17.00;99.90
19970;DHT22;10146;47.754;9.566;2022-10-16T08:56:46;17.00;99.90
19970;DHT22;10146;47.754;9.566;2022-10-16T08:59:14;17.20;99.90
19970;DHT22;10146;47.754;9.566;2022-10-16T09:01:44;17.10;99.90
19970;DHT22;10146;47.754;9.566;2022-10-16T09:10:56;17.20;99.90
19970;DHT22;10146;47.754;9.566;2022-10-16T09:13:17;17.20;99.90
19970;DHT22;10146;47.754;9.566;2022-10-16T09:21:35;17.50;99.90
19970;DHT22;10146;47.754;9.566;2022-10-16T09:24:19;17.60;99.90
19970;DHT22;10146;47.754;9.566;2022-10-16T09:26:46;17.80;99.90
19970;DHT22;10146;47.754;9.566;2022-10-16T09:29:13;17.80;99.90
19970;DHT22;10146;47.754;9.566;2022-10-16T09:31:39;17.80;99.90
19970;DHT22;10146;47.754;9.566;2022-10-16T09:34:08;18.00;99.90
19970;DHT22;10146;47.754;9.566;2022-10-16T09:36:42;18.10;99.90
19970;DHT22;10146;47.754;9.566;2022-10-16T09:39:11;18.20;99.90
19970;DHT22;10146;47.754;9.566;2022-10-16T09:41:39;18.50;99.90
19970;DHT22;10146;47.754;9.566;2022-10-16T09:44:26;18.70;99.90
19970;DHT22;10146;47.754;9.566;2022-10-16T09:47:15;18.80;99.90
19970;DHT22;10146;47.754;9.566;2022-10-16T09:50:04;18.80;99.90
19970;DHT22;10146;47.754;9.566;2022-10-16T09:52:32;18.80;99.90
19970;DHT22;10146;47.754;9.566;2022-10-16T09:55:00;18.90;99.90
19970;DHT22;10146;47.754;9.566;2022-10-16T09:57:26;18.90;99.90
19970;DHT22;10146;47.754;9.566;2022-10-16T09:59:57;18.80;99.90
19970;DHT22;10146;47.754;9.566;2022-10-16T10:02:31;18.70;99.90
19970;DHT22;10146;47.754;9.566;2022-10-16T10:04:59;18.70;99.90
19970;DHT22;10146;47.754;9.566;2022-10-16T10:07:27;18.70;99.90
19970;DHT22;10146;47.754;9.566;2022-10-16T10:09:55;18.60;99.90
19970;DHT22;10146;47.754;9.566;2022-10-16T10:12:29;18.60;99.90
19970;DHT22;10146;47.754;9.566;2022-10-16T10:15:12;18.70;99.90
19970;DHT22;10146;47.754;9.566;2022-10-16T10:17:47;18.70;99.90
19970;DHT22;10146;47.754;9.566;2022-10-16T10:22:53;18.80;99.90
19970;DHT22;10146;47.754;9.566;2022-10-16T10:28:18;19.00;99.90
19970;DHT22;10146;47.754;9.566;2022-10-16T10:31:09;19.20;99.90
19970;DHT22;10146;47.754;9.566;2022-10-16T10:36:16;19.30;99.90
19970;DHT22;10146;47.754;9.566;2022-10-16T10:41:48;19.30;99.90
19970;DHT22;10146;47.754;9.566;2022-10-16T10:44:26;19.40;99.90
19970;DHT22;10146;47.754;9.566;2022-10-16T10:47:07;19.40;99.90
19970;DHT22;10146;47.754;9.566;2022-10-16T10:50:07;19.40;99.90
19970;DHT22;10146;47.754;9.566;2022-10-16T10:55:31;19.50;99.90
19970;DHT22;10146;47.754;9.566;2022-10-16T11:03:27;19.50;99.90
19970;DHT22;10146;47.754;9.566;2022-10-16T11:06:15;19.60;99.90
19970;DHT22;10146;47.754;9.566;2022-10-16T11:08:47;19.60;99.90
19970;DHT22;10146;47.754;9.566;2022-10-16T11:16:42;19.70;99.90
19970;DHT22;10146;47.754;9.566;2022-10-16T11:22:09;19.80;99.90
19970;DHT22;10146;47.754;9.566;2022-10-16T11:27:09;20.00;99.90
19970;DHT22;10146;47.754;9.566;2022-10-16T11:29:44;20.10;99.90
19970;DHT22;10146;47.754;9.566;2022-10-16T11:32:23;20.40;99.90
19970;DHT22;10146;47.754;9.566;2022-10-16T11:34:53;20.50;99.90
19970;DHT22;10146;47.754;9.566;2022-10-16T11:37:25;20.50;99.90
19970;DHT22;10146;47.754;9.566;2022-10-16T11:39:54;20.70;99.90
19970;DHT22;10146;47.754;9.566;2022-10-16T11:42:24;20.70;99.90
19970;DHT22;10146;47.754;9.566;2022-10-16T11:45:03;20.80;99.90
19970;DHT22;10146;47.754;9.566;2022-10-16T11:47:41;20.90;99.90
19970;DHT22;10146;47.754;9.566;2022-10-16T11:55:21;21.20;99.90
19970;DHT22;10146;47.754;9.566;2022-10-16T11:57:51;21.20;99.90
19970;DHT22;10146;47.754;9.566;2022-10-16T12:00:23;21.40;99.90
19970;DHT22;10146;47.754;9.566;2022-10-16T12:03:20;21.40;99.90
19970;DHT22;10146;47.754;9.566;2022-10-16T12:06:30;21.50;99.90
19970;DHT22;10146;47.754;9.566;2022-10-16T12:08:59;21.60;99.90
19970;DHT22;10146;47.754;9.566;2022-10-16T12:17:00;21.80;99.90
19970;DHT22;10146;47.754;9.566;2022-10-16T12:19:27;21.90;99.90
19970;DHT22;10146;47.754;9.566;2022-10-16T12:21:57;21.80;99.90
19970;DHT22;10146;47.754;9.566;2022-10-16T12:24:37;21.90;99.90
19970;DHT22;10146;47.754;9.566;2022-10-16T12:27:05;22.00;99.90
19970;DHT22;10146;47.754;9.566;2022-10-16T12:29:37;22.30;99.90
19970;DHT22;10146;47.754;9.566;2022-10-16T12:32:34;22.50;99.90
19970;DHT22;10146;47.754;9.566;2022-10-16T12:35:01;22.70;99.40
19970;DHT22;10146;47.754;9.566;2022-10-16T12:37:35;22.70;99.90
19970;DHT22;10146;47.754;9.566;2022-10-16T12:40:25;22.70;98.30
19970;DHT22;10146;47.754;9.566;2022-10-16T12:42:52;22.70;97.40
19970;DHT22;10146;47.754;9.566;2022-10-16T12:45:32;22.60;98.70
19970;DHT22;10146;47.754;9.566;2022-10-16T12:48:01;22.60;99.90
19970;DHT22;10146;47.754;9.566;2022-10-16T12:50:30;22.50;99.90
19970;DHT22;10146;47.754;9.566;2022-10-16T12:52:57;22.30;99.90
19970;DHT22;10146;47.754;9.566;2022-10-16T12:55:24;22.20;99.90
19970;DHT22;10146;47.754;9.566;2022-10-16T12:58:13;22.10;99.90
19970;DHT22;10146;47.754;9.566;2022-10-16T13:00:50;22.00;99.90
19970;DHT22;10146;47.754;9.566;2022-10-16T13:03:50;22.00;99.90
19970;DHT22;10146;47.754;9.566;2022-10-16T13:09:31;22.00;99.90
19970;DHT22;10146;47.754;9.566;2022-10-16T13:12:41;22.20;99.90
19970;DHT22;10146;47.754;9.566;2022-10-16T13:18:16;22.40;99.90
19970;DHT22;10146;47.754;9.566;2022-10-16T13:24:17;23.00;99.90
19970;DHT22;10146;47.754;9.566;2022-10-16T13:29:38;23.40;97.40
19970;DHT22;10146;47.754;9.566;2022-10-16T13:32:11;23.50;99.60
19970;DHT22;10146;47.754;9.566;2022-10-16T13:34:46;23.60;99.40
19970;DHT22;10146;47.754;9.566;2022-10-16T13:37:20;23.70;97.80
19970;DHT22;10146;47.754;9.566;2022-10-16T13:39:47;24.00;95.10
19970;DHT22;10146;47.754;9.566;2022-10-16T13:44:49;24.10;95.40
19970;DHT22;10146;47.754;9.566;2022-10-16T13:47:24;24.10;97.70
19970;DHT22;10146;47.754;9.566;2022-10-16T13:50:01;23.80;99.90
19970;DHT22;10146;47.754;9.566;2022-10-16T13:52:27;23.60;99.90
19970;DHT22;10146;47.754;9.566;2022-10-16T13:54:52;23.30;99.90
19970;DHT22;10146;47.754;9.566;2022-10-16T13:57:22;23.10;99.90
19970;DHT22;10146;47.754;9.566;2022-10-16T13:59:48;23.00;99.90
19970;DHT22;10146;47.754;9.566;2022-10-16T14:02:33;23.00;99.90
19970;DHT22;10146;47.754;9.566;2022-10-16T14:05:02;22.90;99.90
19970;DHT22;10146;47.754;9.566;2022-10-16T14:07:33;22.90;99.90
19970;DHT22;10146;47.754;9.566;2022-10-16T14:10:19;22.90;99.90
19970;DHT22;10146;47.754;9.566;2022-10-16T14:12:54;22.80;99.90
19970;DHT22;10146;47.754;9.566;2022-10-16T14:15:20;23.00;99.90
19970;DHT22;10146;47.754;9.566;2022-10-16T14:17:50;23.10;99.90
19970;DHT22;10146;47.754;9.566;2022-10-16T14:20:16;23.20;99.90
19970;DHT22;10146;47.754;9.566;2022-10-16T14:22:42;23.20;99.90
19970;DHT22;10146;47.754;9.566;2022-10-16T14:28:16;23.00;99.90
19970;DHT22;10146;47.754;9.566;2022-10-16T14:30:55;23.10;99.90
19970;DHT22;10146;47.754;9.566;2022-10-16T14:33:32;23.20;99.90
19970;DHT22;10146;47.754;9.566;2022-10-16T14:36:14;23.20;99.90
19970;DHT22;10146;47.754;9.566;2022-10-16T14:41:29;23.20;99.90
19970;DHT22;10146;47.754;9.566;2022-10-16T14:43:58;22.90;99.90
19970;DHT22;10146;47.754;9.566;2022-10-16T14:46:37;22.70;99.90
19970;DHT22;10146;47.754;9.566;2022-10-16T14:49:04;22.50;99.90
19970;DHT22;10146;47.754;9.566;2022-10-16T14:51:30;22.20;99.90
19970;DHT22;10146;47.754;9.566;2022-10-16T14:53:56;22.00;99.90
19970;DHT22;10146;47.754;9.566;2022-10-16T14:56:24;21.70;99.90
19970;DHT22;10146;47.754;9.566;2022-10-16T14:58:51;21.50;99.90
19970;DHT22;10146;47.754;9.566;2022-10-16T15:01:17;21.40;99.90
19970;DHT22;10146;47.754;9.566;2022-10-16T15:03:43;21.30;99.90
19970;DHT22;10146;47.754;9.566;2022-10-16T15:06:15;21.20;99.90
19970;DHT22;10146;47.754;9.566;2022-10-16T15:08:41;21.00;99.90
19970;DHT22;10146;47.754;9.566;2022-10-16T15:11:16;21.00;99.90
19970;DHT22;10146;47.754;9.566;2022-10-16T15:13:42;21.00;99.90
19970;DHT22;10146;47.754;9.566;2022-10-16T15:16:11;21.00;99.90
19970;DHT22;10146;47.754;9.566;2022-10-16T15:18:38;21.10;99.90
19970;DHT22;10146;47.754;9.566;2022-10-16T15:21:03;21.00;99.90
19970;DHT22;10146;47.754;9.566;2022-10-16T15:23:29;21.30;99.90
19970;DHT22;10146;47.754;9.566;2022-10-16T15:25:56;21.00;99.90
19970;DHT22;10146;47.754;9.566;2022-10-16T15:28:23;21.00;99.90
19970;DHT22;10146;47.754;9.566;2022-10-16T15:30:51;20.90;99.90
19970;DHT22;10146;47.754;9.566;2022-10-16T15:33:20;20.90;99.90
19970;DHT22;10146;47.754;9.566;2022-10-16T15:35:48;20.60;99.90
19970;DHT22;10146;47.754;9.566;2022-10-16T15:38:14;20.50;99.90
19970;DHT22;10146;47.754;9.566;2022-10-16T15:40:41;20.30;99.90
19970;DHT22;10146;47.754;9.566;2022-10-16T15:43:07;20.20;99.90
19970;DHT22;10146;47.754;9.566;2022-10-16T15:45:33;20.20;99.90
19970;DHT22;10146;47.754;9.566;2022-10-16T15:47:59;20.00;99.90
19970;DHT22;10146;47.754;9.566;2022-10-16T15:50:25;19.80;99.90
19970;DHT22;10146;47.754;9.566;2022-10-16T15:52:51;19.80;99.90
19970;DHT22;10146;47.754;9.566;2022-10-16T15:55:17;19.60;99.90
19970;DHT22;10146;47.754;9.566;2022-10-16T15:57:44;19.50;99.90
19970;DHT22;10146;47.754;9.566;2022-10-16T16:00:16;19.40;99.90
19970;DHT22;10146;47.754;9.566;2022-10-16T16:02:43;19.30;99.90
19970;DHT22;10146;47.754;9.566;2022-10-16T16:05:10;19.20;99.90
19970;DHT22;10146;47.754;9.566;2022-10-16T16:07:36;19.10;99.90
19970;DHT22;10146;47.754;9.566;2022-10-16T16:10:04;18.90;99.90
19970;DHT22;10146;47.754;9.566;2022-10-16T16:12:30;18.80;99.90
19970;DHT22;10146;47.754;9.566;2022-10-16T16:14:56;18.80;99.90
19970;DHT22;10146;47.754;9.566;2022-10-16T16:17:21;18.80;99.90
19970;DHT22;10146;47.754;9.566;2022-10-16T16:19:47;18.70;99.90
19970;DHT22;10146;47.754;9.566;2022-10-16T16:22:13;18.60;99.90
19970;DHT22;10146;47.754;9.566;2022-10-16T16:24:38;18.60;99.90
19970;DHT22;10146;47.754;9.566;2022-10-16T16:27:04;18.50;99.90
19970;DHT22;10146;47.754;9.566;2022-10-16T16:29:30;18.50;99.90
19970;DHT22;10146;47.754;9.566;2022-10-16T16:31:56;18.20;99.90
19970;DHT22;10146;47.754;9.566;2022-10-16T16:34:24;18.20;99.90
19970;DHT22;10146;47.754;9.566;2022-10-16T16:36:50;18.00;99.90
19970;DHT22;10146;47.754;9.566;2022-10-16T16:39:16;18.00;99.90
19970;DHT22;10146;47.754;9.566;2022-10-16T16:41:42;17.90;99.90
19970;DHT22;10146;47.754;9.566;2022-10-16T16:44:09;18.00;99.90
19970;DHT22;10146;47.754;9.566;2022-10-16T16:46:36;17.90;99.90
19970;DHT22;10146;47.754;9.566;2022-10-16T16:49:02;17.80;99.90
19970;DHT22;10146;47.754;9.566;2022-10-16T16:51:28;17.60;99.90
19970;DHT22;10146;47.754;9.566;2022-10-16T16:53:55;17.60;99.90
19970;DHT22;10146;47.754;9.566;2022-10-16T16:56:22;17.30;99.90
19970;DHT22;10146;47.754;9.566;2022-10-16T16:58:50;17.30;99.90
19970;DHT22;10146;47.754;9.566;2022-10-16T17:01:16;17.20;99.90
19970;DHT22;10146;47.754;9.566;2022-10-16T17:03:43;17.10;99.90
19970;DHT22;10146;47.754;9.566;2022-10-16T17:06:11;17.00;99.90
19970;DHT22;10146;47.754;9.566;2022-10-16T17:08:37;16.80;99.90
19970;DHT22;10146;47.754;9.566;2022-10-16T17:11:04;16.80;99.90